Etusivu
METAR-TAF:

METAR-TAF

Lentoasemat :

Anchorage, Alaska, Yhdysvallat

Leveyspiiri: 61-11N, Pituuspiiri: 149-58W, korkeus merenpinnasta: 22 m

Tämänhetkinen sää

Tämä raportti tehtiin 46 minuuttia sitten, kello 03.53 UTC
Tuuli 4 kn pohjoisen/luoteesta
Lämpötila 19°C
Kosteus 60%
Ilmanpaine 1017 hPa
Näkyvyys: 16.1 km
selkeää

METAR: PALH 220353Z 33004KT 10SM CLR 19/11 A3004 RMK AO2 SLP173 T01940111

Aika: 20:39 (04:39 UTC)


TAF: puuttuu

Säähavainnot ja -ennusteet yli 4000 lentoasemalta (METAR- ja TAF-raportit).

Käytössä olevat sääasemat on merkitty karttaan keltaisilla ja punaisilla pisteillä.

Aseta hiiri pisteen päälle nähdäksesi sääaseman nimen.

Klikkaa sitten nähdäksesi säähavainnot ja -ennusteet.

Kartan vaihtaminen: klikkaa mustalla rastilla varustettuja vihreitä pisteitä, niin voit zoomata sisään; viivalla varustettua vihreää pistettä, niin voit zoomata ulos tai vihreitä nuolia, niin pääset viereisille kartoille.


METAR-TAF: